sensor_id;sensor_type;location;lat;lon;timestamp;P1;durP1;ratioP1;P2;durP2;ratioP2
11255;SDS011;5685;52.384;13.420;2022-09-13T00:02:45;11.60;;;10.90;;
11255;SDS011;5685;52.384;13.420;2022-09-13T00:05:47;12.40;;;11.60;;
11255;SDS011;5685;52.384;13.420;2022-09-13T00:08:51;11.87;;;11.07;;
11255;SDS011;5685;52.384;13.420;2022-09-13T00:11:54;11.80;;;11.10;;
11255;SDS011;5685;52.384;13.420;2022-09-13T00:14:56;12.13;;;11.40;;
11255;SDS011;5685;52.384;13.420;2022-09-13T00:17:58;12.00;;;11.30;;
11255;SDS011;5685;52.384;13.420;2022-09-13T00:21:05;12.03;;;11.33;;
11255;SDS011;5685;52.384;13.420;2022-09-13T00:24:11;12.10;;;11.27;;
11255;SDS011;5685;52.384;13.420;2022-09-13T00:27:13;12.27;;;11.57;;
11255;SDS011;5685;52.384;13.420;2022-09-13T00:30:15;11.43;;;10.73;;
11255;SDS011;5685;52.384;13.420;2022-09-13T00:33:17;11.50;;;10.70;;
11255;SDS011;5685;52.384;13.420;2022-09-13T00:36:19;11.23;;;10.37;;
11255;SDS011;5685;52.384;13.420;2022-09-13T00:39:23;11.17;;;10.37;;
11255;SDS011;5685;52.384;13.420;2022-09-13T00:42:26;11.17;;;10.57;;
11255;SDS011;5685;52.384;13.420;2022-09-13T00:45:31;11.83;;;11.10;;
11255;SDS011;5685;52.384;13.420;2022-09-13T00:48:34;12.13;;;11.40;;
11255;SDS011;5685;52.384;13.420;2022-09-13T00:51:37;11.93;;;11.23;;
11255;SDS011;5685;52.384;13.420;2022-09-13T00:54:45;11.60;;;11.00;;
11255;SDS011;5685;52.384;13.420;2022-09-13T00:57:51;11.47;;;10.77;;
11255;SDS011;5685;52.384;13.420;2022-09-13T01:00:55;11.23;;;10.63;;
11255;SDS011;5685;52.384;13.420;2022-09-13T01:03:59;11.80;;;11.20;;
11255;SDS011;5685;52.384;13.420;2022-09-13T01:07:04;11.83;;;11.23;;
11255;SDS011;5685;52.384;13.420;2022-09-13T01:10:10;11.63;;;11.00;;
11255;SDS011;5685;52.384;13.420;2022-09-13T01:13:15;11.87;;;11.20;;
11255;SDS011;5685;52.384;13.420;2022-09-13T01:16:20;11.90;;;11.00;;
11255;SDS011;5685;52.384;13.420;2022-09-13T01:19:22;10.97;;;10.37;;
11255;SDS011;5685;52.384;13.420;2022-09-13T01:22:33;11.63;;;10.83;;
11255;SDS011;5685;52.384;13.420;2022-09-13T01:26:23;11.33;;;10.73;;
11255;SDS011;5685;52.384;13.420;2022-09-13T01:30:08;11.33;;;10.53;;
11255;SDS011;5685;52.384;13.420;2022-09-13T01:33:20;11.60;;;11.00;;
11255;SDS011;5685;52.384;13.420;2022-09-13T01:36:40;11.63;;;11.03;;
11255;SDS011;5685;52.384;13.420;2022-09-13T01:39:57;11.40;;;10.80;;
11255;SDS011;5685;52.384;13.420;2022-09-13T01:43:18;11.23;;;10.53;;
11255;SDS011;5685;52.384;13.420;2022-09-13T01:46:36;11.73;;;11.13;;
11255;SDS011;5685;52.384;13.420;2022-09-13T01:49:46;11.10;;;10.50;;
11255;SDS011;5685;52.384;13.420;2022-09-13T01:52:56;11.30;;;10.70;;
11255;SDS011;5685;52.384;13.420;2022-09-13T01:56:05;10.97;;;10.37;;
11255;SDS011;5685;52.384;13.420;2022-09-13T01:59:14;11.30;;;10.70;;
11255;SDS011;5685;52.384;13.420;2022-09-13T02:02:25;12.10;;;11.13;;
11255;SDS011;5685;52.384;13.420;2022-09-13T02:05:31;11.63;;;11.03;;
11255;SDS011;5685;52.384;13.420;2022-09-13T02:08:39;11.10;;;10.50;;
11255;SDS011;5685;52.384;13.420;2022-09-13T02:11:45;11.27;;;10.53;;
11255;SDS011;5685;52.384;13.420;2022-09-13T02:14:52;12.03;;;11.33;;
11255;SDS011;5685;52.384;13.420;2022-09-13T02:18:03;11.60;;;11.00;;
11255;SDS011;5685;52.384;13.420;2022-09-13T02:21:11;11.20;;;10.50;;
11255;SDS011;5685;52.384;13.420;2022-09-13T02:24:18;11.33;;;10.60;;
11255;SDS011;5685;52.384;13.420;2022-09-13T02:27:27;10.90;;;10.30;;
11255;SDS011;5685;52.384;13.420;2022-09-13T02:30:34;11.30;;;10.60;;
11255;SDS011;5685;52.384;13.420;2022-09-13T02:33:43;11.03;;;10.43;;
11255;SDS011;5685;52.384;13.420;2022-09-13T02:36:49;11.53;;;10.83;;
11255;SDS011;5685;52.384;13.420;2022-09-13T02:39:56;11.70;;;11.10;;
11255;SDS011;5685;52.384;13.420;2022-09-13T02:43:04;10.70;;;10.20;;
11255;SDS011;5685;52.384;13.420;2022-09-13T02:46:13;10.30;;;9.80;;
11255;SDS011;5685;52.384;13.420;2022-09-13T02:49:32;10.87;;;10.20;;
11255;SDS011;5685;52.384;13.420;2022-09-13T02:52:46;11.10;;;10.50;;
11255;SDS011;5685;52.384;13.420;2022-09-13T02:55:56;10.33;;;9.83;;
11255;SDS011;5685;52.384;13.420;2022-09-13T02:59:08;11.60;;;10.73;;
11255;SDS011;5685;52.384;13.420;2022-09-13T03:02:15;10.63;;;10.13;;
11255;SDS011;5685;52.384;13.420;2022-09-13T03:05:24;11.13;;;10.53;;
11255;SDS011;5685;52.384;13.420;2022-09-13T03:08:26;10.67;;;10.17;;
11255;SDS011;5685;52.384;13.420;2022-09-13T03:11:31;10.20;;;9.70;;
11255;SDS011;5685;52.384;13.420;2022-09-13T03:14:51;11.17;;;10.57;;
11255;SDS011;5685;52.384;13.420;2022-09-13T03:18:04;11.23;;;10.63;;
11255;SDS011;5685;52.384;13.420;2022-09-13T03:21:24;11.03;;;10.43;;
11255;SDS011;5685;52.384;13.420;2022-09-13T03:24:46;9.80;;;9.30;;
11255;SDS011;5685;52.384;13.420;2022-09-13T03:28:00;10.70;;;10.20;;
11255;SDS011;5685;52.384;13.420;2022-09-13T03:31:15;10.20;;;9.70;;
11255;SDS011;5685;52.384;13.420;2022-09-13T03:34:24;10.63;;;10.03;;
11255;SDS011;5685;52.384;13.420;2022-09-13T03:37:36;10.80;;;10.30;;
11255;SDS011;5685;52.384;13.420;2022-09-13T03:40:48;10.83;;;10.23;;
11255;SDS011;5685;52.384;13.420;2022-09-13T03:43:54;10.27;;;9.77;;
11255;SDS011;5685;52.384;13.420;2022-09-13T03:47:01;11.10;;;10.50;;
11255;SDS011;5685;52.384;13.420;2022-09-13T03:50:06;11.17;;;10.57;;
11255;SDS011;5685;52.384;13.420;2022-09-13T03:53:11;10.10;;;9.60;;
11255;SDS011;5685;52.384;13.420;2022-09-13T03:56:19;10.47;;;9.97;;
11255;SDS011;5685;52.384;13.420;2022-09-13T03:59:21;10.30;;;9.80;;
11255;SDS011;5685;52.384;13.420;2022-09-13T04:02:24;10.63;;;10.13;;
11255;SDS011;5685;52.384;13.420;2022-09-13T04:05:27;10.97;;;10.20;;
11255;SDS011;5685;52.384;13.420;2022-09-13T04:08:31;11.70;;;11.00;;
11255;SDS011;5685;52.384;13.420;2022-09-13T04:11:34;10.20;;;9.70;;
11255;SDS011;5685;52.384;13.420;2022-09-13T04:14:36;11.03;;;10.53;;
11255;SDS011;5685;52.384;13.420;2022-09-13T04:17:38;11.33;;;10.73;;
11255;SDS011;5685;52.384;13.420;2022-09-13T04:20:41;10.90;;;10.30;;
11255;SDS011;5685;52.384;13.420;2022-09-13T04:23:45;10.33;;;9.83;;
11255;SDS011;5685;52.384;13.420;2022-09-13T04:26:50;10.33;;;9.83;;
11255;SDS011;5685;52.384;13.420;2022-09-13T04:29:53;10.63;;;10.13;;
11255;SDS011;5685;52.384;13.420;2022-09-13T04:32:55;10.40;;;9.90;;
11255;SDS011;5685;52.384;13.420;2022-09-13T04:35:58;10.60;;;10.10;;
11255;SDS011;5685;52.384;13.420;2022-09-13T04:39:02;10.60;;;10.10;;
11255;SDS011;5685;52.384;13.420;2022-09-13T04:42:05;10.77;;;10.27;;
11255;SDS011;5685;52.384;13.420;2022-09-13T04:45:07;9.97;;;9.47;;
11255;SDS011;5685;52.384;13.420;2022-09-13T04:48:10;10.43;;;9.93;;
11255;SDS011;5685;52.384;13.420;2022-09-13T04:51:12;10.60;;;10.10;;
11255;SDS011;5685;52.384;13.420;2022-09-13T04:54:16;10.53;;;10.03;;
11255;SDS011;5685;52.384;13.420;2022-09-13T04:57:18;10.40;;;9.90;;
11255;SDS011;5685;52.384;13.420;2022-09-13T05:00:21;11.03;;;10.53;;
11255;SDS011;5685;52.384;13.420;2022-09-13T05:03:25;11.47;;;10.87;;
11255;SDS011;5685;52.384;13.420;2022-09-13T05:06:29;10.70;;;10.20;;
11255;SDS011;5685;52.384;13.420;2022-09-13T05:09:33;11.27;;;10.67;;
11255;SDS011;5685;52.384;13.420;2022-09-13T05:12:35;10.90;;;10.40;;
11255;SDS011;5685;52.384;13.420;2022-09-13T05:15:37;10.83;;;10.33;;
11255;SDS011;5685;52.384;13.420;2022-09-13T05:18:39;11.00;;;10.40;;
11255;SDS011;5685;52.384;13.420;2022-09-13T05:21:41;11.03;;;10.53;;
11255;SDS011;5685;52.384;13.420;2022-09-13T05:24:45;11.20;;;10.60;;
11255;SDS011;5685;52.384;13.420;2022-09-13T05:27:48;10.50;;;10.00;;
11255;SDS011;5685;52.384;13.420;2022-09-13T05:30:53;11.40;;;10.80;;
11255;SDS011;5685;52.384;13.420;2022-09-13T05:33:57;11.13;;;10.53;;
11255;SDS011;5685;52.384;13.420;2022-09-13T05:37:02;11.13;;;10.53;;
11255;SDS011;5685;52.384;13.420;2022-09-13T05:40:06;11.33;;;10.83;;
11255;SDS011;5685;52.384;13.420;2022-09-13T05:43:09;11.07;;;10.57;;
11255;SDS011;5685;52.384;13.420;2022-09-13T05:46:12;10.73;;;10.23;;
11255;SDS011;5685;52.384;13.420;2022-09-13T05:49:16;11.03;;;10.33;;
11255;SDS011;5685;52.384;13.420;2022-09-13T05:52:18;10.87;;;10.33;;
11255;SDS011;5685;52.384;13.420;2022-09-13T05:55:22;11.73;;;10.93;;
11255;SDS011;5685;52.384;13.420;2022-09-13T05:58:24;10.53;;;10.03;;
11255;SDS011;5685;52.384;13.420;2022-09-13T06:01:27;11.07;;;10.47;;
11255;SDS011;5685;52.384;13.420;2022-09-13T06:04:30;11.60;;;10.90;;
11255;SDS011;5685;52.384;13.420;2022-09-13T06:07:32;10.80;;;10.20;;
11255;SDS011;5685;52.384;13.420;2022-09-13T06:10:35;11.50;;;10.73;;
11255;SDS011;5685;52.384;13.420;2022-09-13T06:13:38;11.33;;;10.73;;
11255;SDS011;5685;52.384;13.420;2022-09-13T06:16:41;11.43;;;10.83;;
11255;SDS011;5685;52.384;13.420;2022-09-13T06:19:43;11.67;;;11.07;;
11255;SDS011;5685;52.384;13.420;2022-09-13T06:22:46;11.37;;;10.77;;
11255;SDS011;5685;52.384;13.420;2022-09-13T06:25:50;11.13;;;10.53;;
11255;SDS011;5685;52.384;13.420;2022-09-13T06:29:01;11.23;;;10.50;;
11255;SDS011;5685;52.384;13.420;2022-09-13T06:32:03;11.97;;;11.37;;
11255;SDS011;5685;52.384;13.420;2022-09-13T06:35:07;11.90;;;10.97;;
11255;SDS011;5685;52.384;13.420;2022-09-13T06:38:09;10.93;;;10.33;;
11255;SDS011;5685;52.384;13.420;2022-09-13T06:41:14;11.87;;;11.10;;
11255;SDS011;5685;52.384;13.420;2022-09-13T06:44:17;11.10;;;10.50;;
11255;SDS011;5685;52.384;13.420;2022-09-13T06:47:19;11.90;;;11.00;;
11255;SDS011;5685;52.384;13.420;2022-09-13T06:50:22;11.00;;;10.40;;
11255;SDS011;5685;52.384;13.420;2022-09-13T06:53:24;11.30;;;10.70;;
11255;SDS011;5685;52.384;13.420;2022-09-13T06:56:29;11.50;;;10.90;;
11255;SDS011;5685;52.384;13.420;2022-09-13T06:59:33;11.47;;;10.67;;
11255;SDS011;5685;52.384;13.420;2022-09-13T07:02:36;11.27;;;10.67;;
11255;SDS011;5685;52.384;13.420;2022-09-13T07:05:38;11.20;;;10.60;;
11255;SDS011;5685;52.384;13.420;2022-09-13T07:08:40;11.73;;;11.13;;
11255;SDS011;5685;52.384;13.420;2022-09-13T07:11:46;10.60;;;10.10;;
11255;SDS011;5685;52.384;13.420;2022-09-13T07:14:49;11.27;;;10.67;;
11255;SDS011;5685;52.384;13.420;2022-09-13T07:17:52;11.23;;;10.63;;
11255;SDS011;5685;52.384;13.420;2022-09-13T07:20:57;10.47;;;9.97;;
11255;SDS011;5685;52.384;13.420;2022-09-13T07:24:02;11.43;;;10.83;;
11255;SDS011;5685;52.384;13.420;2022-09-13T07:27:07;10.70;;;10.20;;
11255;SDS011;5685;52.384;13.420;2022-09-13T07:30:09;11.17;;;10.57;;
11255;SDS011;5685;52.384;13.420;2022-09-13T07:33:12;11.70;;;11.10;;
11255;SDS011;5685;52.384;13.420;2022-09-13T07:36:14;11.10;;;10.30;;
11255;SDS011;5685;52.384;13.420;2022-09-13T07:39:17;11.57;;;10.97;;
11255;SDS011;5685;52.384;13.420;2022-09-13T07:42:21;11.33;;;10.73;;
11255;SDS011;5685;52.384;13.420;2022-09-13T07:45:23;11.17;;;10.57;;
11255;SDS011;5685;52.384;13.420;2022-09-13T07:48:26;12.00;;;11.30;;
11255;SDS011;5685;52.384;13.420;2022-09-13T07:51:31;11.23;;;10.63;;
11255;SDS011;5685;52.384;13.420;2022-09-13T07:54:34;11.57;;;10.97;;
11255;SDS011;5685;52.384;13.420;2022-09-13T07:57:38;12.17;;;11.47;;
11255;SDS011;5685;52.384;13.420;2022-09-13T08:00:40;11.87;;;11.27;;
11255;SDS011;5685;52.384;13.420;2022-09-13T08:03:42;12.00;;;11.30;;
11255;SDS011;5685;52.384;13.420;2022-09-13T08:06:46;11.80;;;11.13;;
11255;SDS011;5685;52.384;13.420;2022-09-13T08:09:48;11.83;;;11.23;;
11255;SDS011;5685;52.384;13.420;2022-09-13T08:12:53;11.63;;;11.03;;
11255;SDS011;5685;52.384;13.420;2022-09-13T08:15:55;12.30;;;11.23;;
11255;SDS011;5685;52.384;13.420;2022-09-13T08:18:58;11.90;;;11.20;;
11255;SDS011;5685;52.384;13.420;2022-09-13T08:22:02;11.70;;;11.10;;
11255;SDS011;5685;52.384;13.420;2022-09-13T08:25:05;11.23;;;10.63;;
11255;SDS011;5685;52.384;13.420;2022-09-13T08:28:12;11.77;;;11.07;;
11255;SDS011;5685;52.384;13.420;2022-09-13T08:31:16;11.63;;;11.03;;
11255;SDS011;5685;52.384;13.420;2022-09-13T08:34:19;11.50;;;10.90;;
11255;SDS011;5685;52.384;13.420;2022-09-13T08:37:21;11.23;;;10.63;;
11255;SDS011;5685;52.384;13.420;2022-09-13T08:40:24;11.03;;;10.43;;
11255;SDS011;5685;52.384;13.420;2022-09-13T08:43:41;10.97;;;10.30;;
11255;SDS011;5685;52.384;13.420;2022-09-13T08:46:51;11.40;;;10.80;;
11255;SDS011;5685;52.384;13.420;2022-09-13T08:49:59;11.37;;;10.47;;
11255;SDS011;5685;52.384;13.420;2022-09-13T08:53:14;11.10;;;10.50;;
11255;SDS011;5685;52.384;13.420;2022-09-13T08:56:21;11.77;;;11.07;;
11255;SDS011;5685;52.384;13.420;2022-09-13T08:59:35;12.10;;;11.20;;
11255;SDS011;5685;52.384;13.420;2022-09-13T09:02:54;11.80;;;11.17;;
11255;SDS011;5685;52.384;13.420;2022-09-13T09:06:08;12.67;;;11.67;;
11255;SDS011;5685;52.384;13.420;2022-09-13T09:09:15;12.07;;;11.37;;
11255;SDS011;5685;52.384;13.420;2022-09-13T09:12:23;11.77;;;10.97;;
11255;SDS011;5685;52.384;13.420;2022-09-13T09:15:35;11.40;;;10.80;;
11255;SDS011;5685;52.384;13.420;2022-09-13T09:18:43;12.23;;;11.43;;
11255;SDS011;5685;52.384;13.420;2022-09-13T09:21:48;12.33;;;11.33;;
11255;SDS011;5685;52.384;13.420;2022-09-13T09:24:53;13.10;;;12.30;;
11255;SDS011;5685;52.384;13.420;2022-09-13T09:27:57;12.20;;;11.50;;
11255;SDS011;5685;52.384;13.420;2022-09-13T09:31:02;12.03;;;11.33;;
11255;SDS011;5685;52.384;13.420;2022-09-13T09:34:11;12.00;;;11.30;;
11255;SDS011;5685;52.384;13.420;2022-09-13T09:37:25;12.50;;;11.80;;
11255;SDS011;5685;52.384;13.420;2022-09-13T09:40:30;12.50;;;11.80;;
11255;SDS011;5685;52.384;13.420;2022-09-13T09:43:38;12.20;;;11.40;;
11255;SDS011;5685;52.384;13.420;2022-09-13T09:46:49;11.60;;;11.00;;
11255;SDS011;5685;52.384;13.420;2022-09-13T09:49:58;11.70;;;11.00;;
11255;SDS011;5685;52.384;13.420;2022-09-13T09:53:10;12.20;;;11.40;;
11255;SDS011;5685;52.384;13.420;2022-09-13T09:56:22;13.17;;;11.87;;
11255;SDS011;5685;52.384;13.420;2022-09-13T09:59:27;12.20;;;11.50;;
11255;SDS011;5685;52.384;13.420;2022-09-13T10:02:34;12.67;;;11.87;;
11255;SDS011;5685;52.384;13.420;2022-09-13T10:05:43;11.87;;;11.17;;
11255;SDS011;5685;52.384;13.420;2022-09-13T10:08:47;12.37;;;11.47;;
11255;SDS011;5685;52.384;13.420;2022-09-13T10:12:02;12.03;;;11.23;;
11255;SDS011;5685;52.384;13.420;2022-09-13T10:15:10;11.50;;;10.90;;
11255;SDS011;5685;52.384;13.420;2022-09-13T10:18:19;11.90;;;11.27;;
11255;SDS011;5685;52.384;13.420;2022-09-13T10:21:24;12.30;;;11.60;;
11255;SDS011;5685;52.384;13.420;2022-09-13T10:24:28;12.10;;;11.40;;
11255;SDS011;5685;52.384;13.420;2022-09-13T10:27:34;11.67;;;10.97;;
11255;SDS011;5685;52.384;13.420;2022-09-13T10:30:44;12.63;;;11.73;;
11255;SDS011;5685;52.384;13.420;2022-09-13T10:33:56;11.50;;;10.80;;
11255;SDS011;5685;52.384;13.420;2022-09-13T10:37:02;12.37;;;11.57;;
11255;SDS011;5685;52.384;13.420;2022-09-13T10:40:10;12.03;;;11.33;;
11255;SDS011;5685;52.384;13.420;2022-09-13T10:43:20;12.00;;;11.30;;
11255;SDS011;5685;52.384;13.420;2022-09-13T10:46:24;12.23;;;11.53;;
11255;SDS011;5685;52.384;13.420;2022-09-13T10:49:35;11.87;;;11.17;;
11255;SDS011;5685;52.384;13.420;2022-09-13T10:52:49;12.20;;;11.50;;
11255;SDS011;5685;52.384;13.420;2022-09-13T10:55:53;11.40;;;10.80;;
11255;SDS011;5685;52.384;13.420;2022-09-13T10:59:11;13.00;;;12.20;;
11255;SDS011;5685;52.384;13.420;2022-09-13T11:02:25;12.53;;;11.73;;
11255;SDS011;5685;52.384;13.420;2022-09-13T11:06:09;12.10;;;11.40;;
11255;SDS011;5685;52.384;13.420;2022-09-13T11:09:21;11.90;;;11.20;;
11255;SDS011;5685;52.384;13.420;2022-09-13T11:12:33;12.23;;;11.43;;
11255;SDS011;5685;52.384;13.420;2022-09-13T11:15:46;11.43;;;10.77;;
11255;SDS011;5685;52.384;13.420;2022-09-13T11:19:04;12.23;;;11.53;;
11255;SDS011;5685;52.384;13.420;2022-09-13T11:22:49;11.67;;;11.07;;
11255;SDS011;5685;52.384;13.420;2022-09-13T11:26:22;11.47;;;10.77;;
11255;SDS011;5685;52.384;13.420;2022-09-13T11:33:16;11.50;;;10.80;;
11255;SDS011;5685;52.384;13.420;2022-09-13T11:36:33;11.30;;;10.70;;
11255;SDS011;5685;52.384;13.420;2022-09-13T11:39:50;12.27;;;11.47;;
11255;SDS011;5685;52.384;13.420;2022-09-13T11:43:21;11.47;;;10.87;;
11255;SDS011;5685;52.384;13.420;2022-09-13T11:46:42;12.07;;;11.37;;
11255;SDS011;5685;52.384;13.420;2022-09-13T11:49:54;11.00;;;10.40;;
11255;SDS011;5685;52.384;13.420;2022-09-13T11:53:23;12.00;;;11.30;;
11255;SDS011;5685;52.384;13.420;2022-09-13T11:56:45;11.23;;;10.63;;
11255;SDS011;5685;52.384;13.420;2022-09-13T11:59:53;11.50;;;10.90;;
11255;SDS011;5685;52.384;13.420;2022-09-13T12:03:01;11.40;;;10.80;;
11255;SDS011;5685;52.384;13.420;2022-09-13T12:06:12;11.13;;;10.53;;
11255;SDS011;5685;52.384;13.420;2022-09-13T12:09:21;11.37;;;10.77;;
11255;SDS011;5685;52.384;13.420;2022-09-13T12:12:31;10.53;;;9.97;;
11255;SDS011;5685;52.384;13.420;2022-09-13T12:15:36;11.23;;;10.63;;
11255;SDS011;5685;52.384;13.420;2022-09-13T12:18:41;11.37;;;10.67;;
11255;SDS011;5685;52.384;13.420;2022-09-13T12:21:48;11.13;;;10.53;;
11255;SDS011;5685;52.384;13.420;2022-09-13T12:24:52;10.97;;;10.37;;
11255;SDS011;5685;52.384;13.420;2022-09-13T12:28:01;11.83;;;11.13;;
11255;SDS011;5685;52.384;13.420;2022-09-13T12:31:12;11.23;;;10.63;;
11255;SDS011;5685;52.384;13.420;2022-09-13T12:34:20;11.43;;;10.73;;
11255;SDS011;5685;52.384;13.420;2022-09-13T12:37:29;11.23;;;10.53;;
11255;SDS011;5685;52.384;13.420;2022-09-13T12:41:03;11.53;;;10.83;;
11255;SDS011;5685;52.384;13.420;2022-09-13T12:44:46;11.97;;;11.37;;
11255;SDS011;5685;52.384;13.420;2022-09-13T12:48:10;11.60;;;11.00;;
11255;SDS011;5685;52.384;13.420;2022-09-13T12:55:37;12.23;;;11.53;;
11255;SDS011;5685;52.384;13.420;2022-09-13T12:59:06;11.80;;;11.10;;
11255;SDS011;5685;52.384;13.420;2022-09-13T13:02:30;11.97;;;11.27;;
11255;SDS011;5685;52.384;13.420;2022-09-13T13:05:36;12.33;;;11.60;;
11255;SDS011;5685;52.384;13.420;2022-09-13T13:08:45;11.83;;;11.13;;
11255;SDS011;5685;52.384;13.420;2022-09-13T13:11:52;12.00;;;11.30;;
11255;SDS011;5685;52.384;13.420;2022-09-13T13:14:57;11.37;;;10.77;;
11255;SDS011;5685;52.384;13.420;2022-09-13T13:21:28;11.17;;;10.57;;
11255;SDS011;5685;52.384;13.420;2022-09-13T13:24:37;11.40;;;10.80;;
11255;SDS011;5685;52.384;13.420;2022-09-13T13:27:46;11.37;;;10.67;;
11255;SDS011;5685;52.384;13.420;2022-09-13T13:30:51;11.80;;;11.10;;
11255;SDS011;5685;52.384;13.420;2022-09-13T13:33:57;11.10;;;10.50;;
11255;SDS011;5685;52.384;13.420;2022-09-13T13:37:04;12.10;;;11.33;;
11255;SDS011;5685;52.384;13.420;2022-09-13T13:40:27;11.60;;;10.90;;
11255;SDS011;5685;52.384;13.420;2022-09-13T13:43:30;11.83;;;11.13;;
11255;SDS011;5685;52.384;13.420;2022-09-13T13:46:33;11.67;;;11.07;;
11255;SDS011;5685;52.384;13.420;2022-09-13T13:49:42;12.17;;;11.47;;
11255;SDS011;5685;52.384;13.420;2022-09-13T13:52:52;11.63;;;10.93;;
11255;SDS011;5685;52.384;13.420;2022-09-13T13:56:07;12.27;;;11.57;;
11255;SDS011;5685;52.384;13.420;2022-09-13T13:59:21;11.87;;;11.17;;
11255;SDS011;5685;52.384;13.420;2022-09-13T14:02:29;12.40;;;11.60;;
11255;SDS011;5685;52.384;13.420;2022-09-13T14:05:41;11.27;;;10.67;;
11255;SDS011;5685;52.384;13.420;2022-09-13T14:08:58;11.57;;;10.87;;
11255;SDS011;5685;52.384;13.420;2022-09-13T14:12:20;12.67;;;11.87;;
11255;SDS011;5685;52.384;13.420;2022-09-13T14:15:39;12.57;;;11.77;;
11255;SDS011;5685;52.384;13.420;2022-09-13T14:22:24;11.40;;;10.70;;
11255;SDS011;5685;52.384;13.420;2022-09-13T14:25:27;12.23;;;11.43;;
11255;SDS011;5685;52.384;13.420;2022-09-13T14:28:29;12.50;;;11.80;;
11255;SDS011;5685;52.384;13.420;2022-09-13T14:31:33;11.30;;;10.70;;
11255;SDS011;5685;52.384;13.420;2022-09-13T14:34:36;11.80;;;11.10;;
11255;SDS011;5685;52.384;13.420;2022-09-13T14:37:40;11.80;;;11.20;;
11255;SDS011;5685;52.384;13.420;2022-09-13T14:40:45;12.10;;;11.37;;
11255;SDS011;5685;52.384;13.420;2022-09-13T14:43:49;12.27;;;11.47;;
11255;SDS011;5685;52.384;13.420;2022-09-13T14:46:52;11.47;;;10.77;;
11255;SDS011;5685;52.384;13.420;2022-09-13T14:50:06;12.07;;;11.43;;
11255;SDS011;5685;52.384;13.420;2022-09-13T14:53:17;11.23;;;10.63;;
11255;SDS011;5685;52.384;13.420;2022-09-13T14:56:26;11.80;;;11.10;;
11255;SDS011;5685;52.384;13.420;2022-09-13T14:59:34;11.13;;;10.50;;
11255;SDS011;5685;52.384;13.420;2022-09-13T15:02:43;11.30;;;10.70;;
11255;SDS011;5685;52.384;13.420;2022-09-13T15:05:50;17.40;;;11.87;;
11255;SDS011;5685;52.384;13.420;2022-09-13T15:08:58;11.93;;;11.17;;
11255;SDS011;5685;52.384;13.420;2022-09-13T15:12:19;12.13;;;11.43;;
11255;SDS011;5685;52.384;13.420;2022-09-13T15:15:32;11.87;;;11.27;;
11255;SDS011;5685;52.384;13.420;2022-09-13T15:18:37;12.43;;;11.63;;
11255;SDS011;5685;52.384;13.420;2022-09-13T15:21:39;11.90;;;11.20;;
11255;SDS011;5685;52.384;13.420;2022-09-13T15:24:44;11.83;;;11.13;;
11255;SDS011;5685;52.384;13.420;2022-09-13T15:27:49;11.87;;;11.17;;
11255;SDS011;5685;52.384;13.420;2022-09-13T15:30:52;11.77;;;11.07;;
11255;SDS011;5685;52.384;13.420;2022-09-13T15:37:27;12.20;;;11.50;;
11255;SDS011;5685;52.384;13.420;2022-09-13T15:40:41;12.27;;;11.57;;
11255;SDS011;5685;52.384;13.420;2022-09-13T15:43:46;11.70;;;11.00;;
11255;SDS011;5685;52.384;13.420;2022-09-13T15:46:49;12.40;;;11.70;;
11255;SDS011;5685;52.384;13.420;2022-09-13T15:49:53;11.67;;;11.07;;
11255;SDS011;5685;52.384;13.420;2022-09-13T15:52:56;11.63;;;11.03;;
11255;SDS011;5685;52.384;13.420;2022-09-13T15:56:02;11.57;;;10.97;;
11255;SDS011;5685;52.384;13.420;2022-09-13T15:59:05;11.40;;;10.80;;
11255;SDS011;5685;52.384;13.420;2022-09-13T16:02:14;11.43;;;10.83;;
11255;SDS011;5685;52.384;13.420;2022-09-13T16:05:21;10.83;;;10.23;;
11255;SDS011;5685;52.384;13.420;2022-09-13T16:08:23;11.67;;;11.07;;
11255;SDS011;5685;52.384;13.420;2022-09-13T16:11:27;11.57;;;10.97;;
11255;SDS011;5685;52.384;13.420;2022-09-13T16:14:29;11.60;;;10.97;;
11255;SDS011;5685;52.384;13.420;2022-09-13T16:17:31;11.27;;;10.67;;
11255;SDS011;5685;52.384;13.420;2022-09-13T16:20:34;11.23;;;10.63;;
11255;SDS011;5685;52.384;13.420;2022-09-13T16:23:36;11.80;;;11.10;;
11255;SDS011;5685;52.384;13.420;2022-09-13T16:26:39;11.53;;;10.83;;
11255;SDS011;5685;52.384;13.420;2022-09-13T16:29:42;10.90;;;10.30;;
11255;SDS011;5685;52.384;13.420;2022-09-13T16:32:45;11.60;;;10.93;;
11255;SDS011;5685;52.384;13.420;2022-09-13T16:35:48;11.80;;;11.13;;
11255;SDS011;5685;52.384;13.420;2022-09-13T16:38:50;12.23;;;11.53;;
11255;SDS011;5685;52.384;13.420;2022-09-13T16:41:54;23.43;;;21.37;;
11255;SDS011;5685;52.384;13.420;2022-09-13T16:44:56;47.07;;;37.50;;
11255;SDS011;5685;52.384;13.420;2022-09-13T16:47:59;69.23;;;51.20;;
11255;SDS011;5685;52.384;13.420;2022-09-13T16:51:01;58.20;;;42.63;;
11255;SDS011;5685;52.384;13.420;2022-09-13T16:54:04;48.40;;;39.73;;
11255;SDS011;5685;52.384;13.420;2022-09-13T16:57:08;42.57;;;30.77;;
11255;SDS011;5685;52.384;13.420;2022-09-13T17:00:11;45.47;;;35.47;;
11255;SDS011;5685;52.384;13.420;2022-09-13T17:03:15;39.53;;;31.80;;
11255;SDS011;5685;52.384;13.420;2022-09-13T17:06:17;35.87;;;29.97;;
11255;SDS011;5685;52.384;13.420;2022-09-13T17:09:20;39.37;;;32.10;;
11255;SDS011;5685;52.384;13.420;2022-09-13T17:12:27;45.87;;;36.17;;
11255;SDS011;5685;52.384;13.420;2022-09-13T17:15:30;48.37;;;38.53;;
11255;SDS011;5685;52.384;13.420;2022-09-13T17:18:32;43.10;;;32.93;;
11255;SDS011;5685;52.384;13.420;2022-09-13T17:21:34;37.13;;;29.53;;
11255;SDS011;5685;52.384;13.420;2022-09-13T17:24:37;47.33;;;36.23;;
11255;SDS011;5685;52.384;13.420;2022-09-13T17:27:41;40.87;;;32.47;;
11255;SDS011;5685;52.384;13.420;2022-09-13T17:30:43;32.90;;;28.40;;
11255;SDS011;5685;52.384;13.420;2022-09-13T17:33:47;40.90;;;32.23;;
11255;SDS011;5685;52.384;13.420;2022-09-13T17:36:49;44.27;;;34.53;;
11255;SDS011;5685;52.384;13.420;2022-09-13T17:39:51;39.53;;;32.50;;
11255;SDS011;5685;52.384;13.420;2022-09-13T17:42:54;33.87;;;27.53;;
11255;SDS011;5685;52.384;13.420;2022-09-13T17:46:01;30.87;;;27.57;;
11255;SDS011;5685;52.384;13.420;2022-09-13T17:49:04;40.13;;;32.10;;
11255;SDS011;5685;52.384;13.420;2022-09-13T17:52:07;36.03;;;30.50;;
11255;SDS011;5685;52.384;13.420;2022-09-13T17:55:09;34.80;;;28.63;;
11255;SDS011;5685;52.384;13.420;2022-09-13T17:58:13;37.43;;;30.33;;
11255;SDS011;5685;52.384;13.420;2022-09-13T18:01:15;42.83;;;35.60;;
11255;SDS011;5685;52.384;13.420;2022-09-13T18:04:19;54.43;;;43.63;;
11255;SDS011;5685;52.384;13.420;2022-09-13T18:07:23;37.83;;;31.43;;
11255;SDS011;5685;52.384;13.420;2022-09-13T18:10:25;45.33;;;38.27;;
11255;SDS011;5685;52.384;13.420;2022-09-13T18:13:29;35.77;;;29.47;;
11255;SDS011;5685;52.384;13.420;2022-09-13T18:16:31;40.27;;;31.40;;
11255;SDS011;5685;52.384;13.420;2022-09-13T18:19:33;32.23;;;27.50;;
11255;SDS011;5685;52.384;13.420;2022-09-13T18:22:36;33.63;;;29.77;;
11255;SDS011;5685;52.384;13.420;2022-09-13T18:25:38;31.87;;;28.20;;
11255;SDS011;5685;52.384;13.420;2022-09-13T18:28:42;29.33;;;26.20;;
11255;SDS011;5685;52.384;13.420;2022-09-13T18:31:45;31.17;;;27.80;;
11255;SDS011;5685;52.384;13.420;2022-09-13T18:34:47;33.87;;;29.93;;
11255;SDS011;5685;52.384;13.420;2022-09-13T18:37:49;33.20;;;28.80;;